sensor_id;sensor_type;location;lat;lon;timestamp;P1;durP1;ratioP1;P2;durP2;ratioP2
30934;SDS011;51033;42.648;23.292;2023-02-28T00:00:32;24.75;;;13.90;;
30934;SDS011;51033;42.648;23.292;2023-02-28T00:02:58;17.83;;;13.30;;
30934;SDS011;51033;42.648;23.292;2023-02-28T00:05:24;19.25;;;12.23;;
30934;SDS011;51033;42.648;23.292;2023-02-28T00:07:51;21.35;;;11.77;;
30934;SDS011;51033;42.648;23.292;2023-02-28T00:10:35;15.32;;;11.27;;
30934;SDS011;51033;42.648;23.292;2023-02-28T00:13:02;20.80;;;9.48;;
30934;SDS011;51033;42.648;23.292;2023-02-28T00:15:29;18.23;;;8.85;;
30934;SDS011;51033;42.648;23.292;2023-02-28T00:17:55;12.23;;;7.93;;
30934;SDS011;51033;42.648;23.292;2023-02-28T00:20:21;13.82;;;8.68;;
30934;SDS011;51033;42.648;23.292;2023-02-28T00:22:47;13.25;;;8.25;;
30934;SDS011;51033;42.648;23.292;2023-02-28T00:25:15;12.90;;;8.88;;
30934;SDS011;51033;42.648;23.292;2023-02-28T00:27:43;12.50;;;7.60;;
30934;SDS011;51033;42.648;23.292;2023-02-28T00:30:12;14.40;;;8.23;;
30934;SDS011;51033;42.648;23.292;2023-02-28T00:32:40;8.75;;;7.00;;
30934;SDS011;51033;42.648;23.292;2023-02-28T00:35:06;11.02;;;7.97;;
30934;SDS011;51033;42.648;23.292;2023-02-28T00:37:32;11.18;;;8.30;;
30934;SDS011;51033;42.648;23.292;2023-02-28T00:39:58;13.68;;;6.80;;
30934;SDS011;51033;42.648;23.292;2023-02-28T00:42:25;8.20;;;5.00;;
30934;SDS011;51033;42.648;23.292;2023-02-28T00:44:50;6.07;;;5.13;;
30934;SDS011;51033;42.648;23.292;2023-02-28T00:47:16;13.25;;;5.22;;
30934;SDS011;51033;42.648;23.292;2023-02-28T00:49:41;11.45;;;6.43;;
30934;SDS011;51033;42.648;23.292;2023-02-28T00:52:07;12.18;;;7.88;;
30934;SDS011;51033;42.648;23.292;2023-02-28T00:54:32;10.60;;;6.97;;
30934;SDS011;51033;42.648;23.292;2023-02-28T00:56:58;15.05;;;9.52;;
30934;SDS011;51033;42.648;23.292;2023-02-28T00:59:24;11.70;;;8.90;;
30934;SDS011;51033;42.648;23.292;2023-02-28T01:01:49;14.45;;;9.73;;
30934;SDS011;51033;42.648;23.292;2023-02-28T01:04:14;11.38;;;8.43;;
30934;SDS011;51033;42.648;23.292;2023-02-28T01:06:40;16.42;;;10.15;;
30934;SDS011;51033;42.648;23.292;2023-02-28T01:09:06;19.08;;;11.75;;
30934;SDS011;51033;42.648;23.292;2023-02-28T01:11:32;15.80;;;11.35;;
30934;SDS011;51033;42.648;23.292;2023-02-28T01:13:58;13.88;;;10.93;;
30934;SDS011;51033;42.648;23.292;2023-02-28T01:16:24;17.20;;;10.23;;
30934;SDS011;51033;42.648;23.292;2023-02-28T01:18:50;13.57;;;10.20;;
30934;SDS011;51033;42.648;23.292;2023-02-28T01:21:16;18.92;;;12.32;;
30934;SDS011;51033;42.648;23.292;2023-02-28T01:23:43;14.05;;;10.05;;
30934;SDS011;51033;42.648;23.292;2023-02-28T01:26:13;15.88;;;10.30;;
30934;SDS011;51033;42.648;23.292;2023-02-28T01:28:40;16.05;;;11.05;;
30934;SDS011;51033;42.648;23.292;2023-02-28T01:31:06;19.40;;;11.57;;
30934;SDS011;51033;42.648;23.292;2023-02-28T01:33:32;24.08;;;12.50;;
30934;SDS011;51033;42.648;23.292;2023-02-28T01:36:02;21.05;;;13.40;;
30934;SDS011;51033;42.648;23.292;2023-02-28T01:38:32;23.73;;;15.07;;
30934;SDS011;51033;42.648;23.292;2023-02-28T01:40:58;22.77;;;15.18;;
30934;SDS011;51033;42.648;23.292;2023-02-28T01:43:25;25.08;;;15.48;;
30934;SDS011;51033;42.648;23.292;2023-02-28T01:45:52;23.02;;;14.95;;
30934;SDS011;51033;42.648;23.292;2023-02-28T01:48:19;22.20;;;15.02;;
30934;SDS011;51033;42.648;23.292;2023-02-28T01:50:47;31.45;;;20.65;;
30934;SDS011;51033;42.648;23.292;2023-02-28T01:53:15;37.78;;;20.23;;
30934;SDS011;51033;42.648;23.292;2023-02-28T01:55:45;35.63;;;21.02;;
30934;SDS011;51033;42.648;23.292;2023-02-28T01:58:15;56.72;;;25.88;;
30934;SDS011;51033;42.648;23.292;2023-02-28T02:00:41;74.30;;;25.60;;
30934;SDS011;51033;42.648;23.292;2023-02-28T02:03:12;39.85;;;26.48;;
30934;SDS011;51033;42.648;23.292;2023-02-28T02:05:40;44.33;;;25.20;;
30934;SDS011;51033;42.648;23.292;2023-02-28T02:08:08;60.35;;;26.58;;
30934;SDS011;51033;42.648;23.292;2023-02-28T02:10:42;39.72;;;24.77;;
30934;SDS011;51033;42.648;23.292;2023-02-28T02:15:52;38.97;;;23.58;;
30934;SDS011;51033;42.648;23.292;2023-02-28T02:34:54;80.90;;;37.15;;
30934;SDS011;51033;42.648;23.292;2023-02-28T02:45:40;111.05;;;29.33;;
30934;SDS011;51033;42.648;23.292;2023-02-28T02:48:11;128.73;;;28.15;;
30934;SDS011;51033;42.648;23.292;2023-02-28T02:50:45;85.25;;;26.25;;
30934;SDS011;51033;42.648;23.292;2023-02-28T02:53:14;109.30;;;31.85;;
30934;SDS011;51033;42.648;23.292;2023-02-28T02:55:43;82.32;;;26.80;;
30934;SDS011;51033;42.648;23.292;2023-02-28T02:58:13;60.78;;;24.58;;
30934;SDS011;51033;42.648;23.292;2023-02-28T03:00:41;142.63;;;32.90;;
30934;SDS011;51033;42.648;23.292;2023-02-28T03:03:12;188.30;;;32.92;;
30934;SDS011;51033;42.648;23.292;2023-02-28T03:05:45;78.18;;;24.98;;
30934;SDS011;51033;42.648;23.292;2023-02-28T03:08:15;78.15;;;24.17;;
30934;SDS011;51033;42.648;23.292;2023-02-28T03:10:42;234.48;;;30.27;;
30934;SDS011;51033;42.648;23.292;2023-02-28T03:16:32;229.40;;;30.05;;
30934;SDS011;51033;42.648;23.292;2023-02-28T03:21:06;127.40;;;25.42;;
30934;SDS011;51033;42.648;23.292;2023-02-28T03:26:27;166.38;;;27.27;;
30934;SDS011;51033;42.648;23.292;2023-02-28T03:29:37;67.30;;;24.35;;
30934;SDS011;51033;42.648;23.292;2023-02-28T03:31:53;107.05;;;23.90;;
30934;SDS011;51033;42.648;23.292;2023-02-28T03:34:41;136.48;;;26.25;;
30934;SDS011;51033;42.648;23.292;2023-02-28T03:37:15;124.60;;;27.23;;
30934;SDS011;51033;42.648;23.292;2023-02-28T03:39:45;143.88;;;27.15;;
30934;SDS011;51033;42.648;23.292;2023-02-28T03:42:15;102.38;;;25.00;;
30934;SDS011;51033;42.648;23.292;2023-02-28T03:44:45;123.38;;;26.50;;
30934;SDS011;51033;42.648;23.292;2023-02-28T03:47:23;103.80;;;24.25;;
30934;SDS011;51033;42.648;23.292;2023-02-28T03:52:22;57.33;;;21.65;;
30934;SDS011;51033;42.648;23.292;2023-02-28T03:54:52;126.63;;;26.20;;
30934;SDS011;51033;42.648;23.292;2023-02-28T03:59:59;53.78;;;20.95;;
30934;SDS011;51033;42.648;23.292;2023-02-28T04:02:37;42.17;;;21.38;;
30934;SDS011;51033;42.648;23.292;2023-02-28T04:05:04;58.08;;;21.20;;
30934;SDS011;51033;42.648;23.292;2023-02-28T04:07:30;38.17;;;20.33;;
30934;SDS011;51033;42.648;23.292;2023-02-28T04:09:57;77.78;;;22.65;;
30934;SDS011;51033;42.648;23.292;2023-02-28T04:12:23;76.63;;;23.20;;
30934;SDS011;51033;42.648;23.292;2023-02-28T04:14:49;61.83;;;22.60;;
30934;SDS011;51033;42.648;23.292;2023-02-28T04:17:15;46.00;;;22.33;;
30934;SDS011;51033;42.648;23.292;2023-02-28T04:19:41;47.38;;;19.70;;
30934;SDS011;51033;42.648;23.292;2023-02-28T04:22:07;64.75;;;22.02;;
30934;SDS011;51033;42.648;23.292;2023-02-28T04:24:34;50.33;;;22.15;;
30934;SDS011;51033;42.648;23.292;2023-02-28T04:27:00;78.97;;;23.15;;
30934;SDS011;51033;42.648;23.292;2023-02-28T04:29:30;47.67;;;20.88;;
30934;SDS011;51033;42.648;23.292;2023-02-28T04:31:57;37.05;;;19.10;;
30934;SDS011;51033;42.648;23.292;2023-02-28T04:34:24;44.28;;;19.30;;
30934;SDS011;51033;42.648;23.292;2023-02-28T04:36:51;40.97;;;21.55;;
30934;SDS011;51033;42.648;23.292;2023-02-28T04:39:19;34.45;;;19.23;;
30934;SDS011;51033;42.648;23.292;2023-02-28T04:41:45;40.55;;;17.80;;
30934;SDS011;51033;42.648;23.292;2023-02-28T04:44:11;35.03;;;16.85;;
30934;SDS011;51033;42.648;23.292;2023-02-28T04:46:37;28.08;;;14.38;;
30934;SDS011;51033;42.648;23.292;2023-02-28T04:49:02;37.22;;;17.88;;
30934;SDS011;51033;42.648;23.292;2023-02-28T04:51:28;39.88;;;17.85;;
30934;SDS011;51033;42.648;23.292;2023-02-28T04:53:53;37.13;;;17.25;;
30934;SDS011;51033;42.648;23.292;2023-02-28T04:56:19;59.88;;;19.88;;
30934;SDS011;51033;42.648;23.292;2023-02-28T04:58:45;33.63;;;17.88;;
30934;SDS011;51033;42.648;23.292;2023-02-28T05:01:19;33.05;;;17.25;;
30934;SDS011;51033;42.648;23.292;2023-02-28T05:03:55;35.08;;;18.17;;
30934;SDS011;51033;42.648;23.292;2023-02-28T05:06:23;72.75;;;19.88;;
30934;SDS011;51033;42.648;23.292;2023-02-28T05:08:50;36.13;;;17.95;;
30934;SDS011;51033;42.648;23.292;2023-02-28T05:11:20;39.15;;;17.27;;
30934;SDS011;51033;42.648;23.292;2023-02-28T05:13:48;30.65;;;17.63;;
30934;SDS011;51033;42.648;23.292;2023-02-28T05:16:15;31.33;;;16.80;;
30934;SDS011;51033;42.648;23.292;2023-02-28T05:18:41;29.52;;;16.98;;
30934;SDS011;51033;42.648;23.292;2023-02-28T05:21:15;36.67;;;17.63;;
30934;SDS011;51033;42.648;23.292;2023-02-28T05:23:49;28.00;;;15.93;;
30934;SDS011;51033;42.648;23.292;2023-02-28T05:26:14;37.28;;;17.00;;
30934;SDS011;51033;42.648;23.292;2023-02-28T05:28:40;37.63;;;16.58;;
30934;SDS011;51033;42.648;23.292;2023-02-28T05:31:05;30.17;;;17.25;;
30934;SDS011;51033;42.648;23.292;2023-02-28T05:33:30;50.15;;;20.00;;
30934;SDS011;51033;42.648;23.292;2023-02-28T05:35:56;51.15;;;26.55;;
30934;SDS011;51033;42.648;23.292;2023-02-28T05:38:21;65.05;;;25.48;;
30934;SDS011;51033;42.648;23.292;2023-02-28T05:40:47;50.42;;;22.25;;
30934;SDS011;51033;42.648;23.292;2023-02-28T05:43:12;36.90;;;20.23;;
30934;SDS011;51033;42.648;23.292;2023-02-28T05:45:38;33.78;;;18.20;;
30934;SDS011;51033;42.648;23.292;2023-02-28T05:48:03;31.13;;;18.30;;
30934;SDS011;51033;42.648;23.292;2023-02-28T05:50:29;38.08;;;21.10;;
30934;SDS011;51033;42.648;23.292;2023-02-28T05:52:54;31.13;;;18.98;;
30934;SDS011;51033;42.648;23.292;2023-02-28T05:55:20;29.05;;;17.83;;
30934;SDS011;51033;42.648;23.292;2023-02-28T05:57:45;33.08;;;19.63;;
30934;SDS011;51033;42.648;23.292;2023-02-28T06:00:11;37.35;;;20.05;;
30934;SDS011;51033;42.648;23.292;2023-02-28T06:02:38;34.65;;;19.65;;
30934;SDS011;51033;42.648;23.292;2023-02-28T06:05:04;36.22;;;21.02;;
30934;SDS011;51033;42.648;23.292;2023-02-28T06:07:30;34.20;;;20.75;;
30934;SDS011;51033;42.648;23.292;2023-02-28T06:09:56;35.63;;;20.55;;
30934;SDS011;51033;42.648;23.292;2023-02-28T06:12:21;38.08;;;21.10;;
30934;SDS011;51033;42.648;23.292;2023-02-28T06:14:46;37.17;;;20.48;;
30934;SDS011;51033;42.648;23.292;2023-02-28T06:17:12;35.67;;;20.13;;
30934;SDS011;51033;42.648;23.292;2023-02-28T06:19:37;30.85;;;18.73;;
30934;SDS011;51033;42.648;23.292;2023-02-28T06:22:06;34.35;;;20.00;;
30934;SDS011;51033;42.648;23.292;2023-02-28T06:24:31;33.75;;;20.67;;
30934;SDS011;51033;42.648;23.292;2023-02-28T06:26:57;33.97;;;20.77;;
30934;SDS011;51033;42.648;23.292;2023-02-28T06:29:29;32.38;;;21.00;;
30934;SDS011;51033;42.648;23.292;2023-02-28T06:31:56;31.63;;;20.85;;
30934;SDS011;51033;42.648;23.292;2023-02-28T06:34:21;31.58;;;20.40;;
30934;SDS011;51033;42.648;23.292;2023-02-28T06:36:46;33.17;;;19.35;;
30934;SDS011;51033;42.648;23.292;2023-02-28T06:39:15;36.08;;;22.10;;
30934;SDS011;51033;42.648;23.292;2023-02-28T06:41:40;34.38;;;21.65;;
30934;SDS011;51033;42.648;23.292;2023-02-28T06:44:10;35.40;;;22.45;;
30934;SDS011;51033;42.648;23.292;2023-02-28T06:46:39;39.33;;;23.80;;
30934;SDS011;51033;42.648;23.292;2023-02-28T06:49:06;50.13;;;31.65;;
30934;SDS011;51033;42.648;23.292;2023-02-28T06:51:36;38.25;;;23.33;;
30934;SDS011;51033;42.648;23.292;2023-02-28T06:54:04;40.97;;;23.55;;
30934;SDS011;51033;42.648;23.292;2023-02-28T06:56:29;45.80;;;27.48;;
30934;SDS011;51033;42.648;23.292;2023-02-28T06:58:55;43.67;;;27.08;;
30934;SDS011;51033;42.648;23.292;2023-02-28T07:01:21;47.22;;;27.00;;
30934;SDS011;51033;42.648;23.292;2023-02-28T07:03:49;40.78;;;25.50;;
30934;SDS011;51033;42.648;23.292;2023-02-28T07:06:17;47.25;;;26.92;;
30934;SDS011;51033;42.648;23.292;2023-02-28T07:08:43;43.40;;;26.83;;
30934;SDS011;51033;42.648;23.292;2023-02-28T07:11:09;44.38;;;26.63;;
30934;SDS011;51033;42.648;23.292;2023-02-28T07:13:35;44.05;;;28.77;;
30934;SDS011;51033;42.648;23.292;2023-02-28T07:16:02;110.28;;;58.92;;
30934;SDS011;51033;42.648;23.292;2023-02-28T07:18:29;51.47;;;30.10;;
30934;SDS011;51033;42.648;23.292;2023-02-28T07:20:54;51.90;;;30.83;;
30934;SDS011;51033;42.648;23.292;2023-02-28T07:23:20;51.42;;;32.20;;
30934;SDS011;51033;42.648;23.292;2023-02-28T07:25:47;51.00;;;28.88;;
30934;SDS011;51033;42.648;23.292;2023-02-28T07:28:12;45.80;;;31.55;;
30934;SDS011;51033;42.648;23.292;2023-02-28T07:30:39;49.50;;;28.85;;
30934;SDS011;51033;42.648;23.292;2023-02-28T07:33:05;46.13;;;30.30;;
30934;SDS011;51033;42.648;23.292;2023-02-28T07:35:30;51.78;;;29.45;;
30934;SDS011;51033;42.648;23.292;2023-02-28T07:37:59;50.08;;;29.70;;
30934;SDS011;51033;42.648;23.292;2023-02-28T07:40:25;55.67;;;28.42;;
30934;SDS011;51033;42.648;23.292;2023-02-28T07:42:51;53.45;;;29.30;;
30934;SDS011;51033;42.648;23.292;2023-02-28T07:45:16;60.10;;;28.27;;
30934;SDS011;51033;42.648;23.292;2023-02-28T07:47:42;45.90;;;27.60;;
30934;SDS011;51033;42.648;23.292;2023-02-28T07:50:10;60.47;;;29.38;;
30934;SDS011;51033;42.648;23.292;2023-02-28T07:52:37;50.92;;;30.17;;
30934;SDS011;51033;42.648;23.292;2023-02-28T07:55:04;55.47;;;36.25;;
30934;SDS011;51033;42.648;23.292;2023-02-28T07:57:34;46.90;;;29.95;;
30934;SDS011;51033;42.648;23.292;2023-02-28T07:59:59;48.30;;;28.52;;
30934;SDS011;51033;42.648;23.292;2023-02-28T08:02:24;51.85;;;28.10;;
30934;SDS011;51033;42.648;23.292;2023-02-28T08:04:50;51.30;;;30.23;;
30934;SDS011;51033;42.648;23.292;2023-02-28T08:07:15;60.70;;;31.40;;
30934;SDS011;51033;42.648;23.292;2023-02-28T08:09:42;50.83;;;27.80;;
30934;SDS011;51033;42.648;23.292;2023-02-28T08:12:08;67.05;;;30.50;;
30934;SDS011;51033;42.648;23.292;2023-02-28T08:14:35;52.38;;;29.67;;
30934;SDS011;51033;42.648;23.292;2023-02-28T08:17:00;45.72;;;29.08;;
30934;SDS011;51033;42.648;23.292;2023-02-28T08:19:27;57.17;;;30.35;;
30934;SDS011;51033;42.648;23.292;2023-02-28T08:21:53;57.35;;;31.70;;
30934;SDS011;51033;42.648;23.292;2023-02-28T08:24:19;51.60;;;33.42;;
30934;SDS011;51033;42.648;23.292;2023-02-28T08:26:44;55.22;;;32.05;;
30934;SDS011;51033;42.648;23.292;2023-02-28T08:29:10;61.92;;;31.80;;
30934;SDS011;51033;42.648;23.292;2023-02-28T08:31:35;49.03;;;29.80;;
30934;SDS011;51033;42.648;23.292;2023-02-28T08:34:05;50.83;;;31.15;;
30934;SDS011;51033;42.648;23.292;2023-02-28T08:36:31;70.22;;;38.17;;
30934;SDS011;51033;42.648;23.292;2023-02-28T08:38:57;77.18;;;41.10;;
30934;SDS011;51033;42.648;23.292;2023-02-28T08:41:23;69.07;;;39.00;;
30934;SDS011;51033;42.648;23.292;2023-02-28T08:43:48;73.30;;;41.25;;
30934;SDS011;51033;42.648;23.292;2023-02-28T08:46:13;79.35;;;41.95;;
30934;SDS011;51033;42.648;23.292;2023-02-28T08:48:39;94.32;;;51.35;;
30934;SDS011;51033;42.648;23.292;2023-02-28T08:51:09;82.05;;;47.47;;
30934;SDS011;51033;42.648;23.292;2023-02-28T08:53:37;84.53;;;44.38;;
30934;SDS011;51033;42.648;23.292;2023-02-28T08:56:08;86.68;;;43.00;;
30934;SDS011;51033;42.648;23.292;2023-02-28T08:58:36;82.65;;;40.75;;
30934;SDS011;51033;42.648;23.292;2023-02-28T09:01:09;82.65;;;42.10;;
30934;SDS011;51033;42.648;23.292;2023-02-28T09:03:39;79.85;;;41.65;;
30934;SDS011;51033;42.648;23.292;2023-02-28T09:06:06;74.63;;;40.35;;
30934;SDS011;51033;42.648;23.292;2023-02-28T09:08:32;77.45;;;40.45;;
30934;SDS011;51033;42.648;23.292;2023-02-28T09:10:57;78.10;;;41.50;;
30934;SDS011;51033;42.648;23.292;2023-02-28T09:13:24;69.07;;;38.42;;
30934;SDS011;51033;42.648;23.292;2023-02-28T09:15:50;75.80;;;41.17;;
30934;SDS011;51033;42.648;23.292;2023-02-28T09:18:16;72.75;;;38.47;;
30934;SDS011;51033;42.648;23.292;2023-02-28T09:20:42;85.10;;;41.25;;
30934;SDS011;51033;42.648;23.292;2023-02-28T09:23:08;74.93;;;39.08;;
30934;SDS011;51033;42.648;23.292;2023-02-28T09:25:35;68.60;;;37.53;;
30934;SDS011;51033;42.648;23.292;2023-02-28T09:28:01;66.10;;;36.97;;
30934;SDS011;51033;42.648;23.292;2023-02-28T09:30:27;86.03;;;44.40;;
30934;SDS011;51033;42.648;23.292;2023-02-28T09:32:53;86.55;;;48.38;;
30934;SDS011;51033;42.648;23.292;2023-02-28T09:35:19;77.57;;;40.42;;
30934;SDS011;51033;42.648;23.292;2023-02-28T09:37:51;65.72;;;37.50;;
30934;SDS011;51033;42.648;23.292;2023-02-28T09:40:17;61.42;;;37.05;;
30934;SDS011;51033;42.648;23.292;2023-02-28T09:42:47;61.65;;;35.50;;
30934;SDS011;51033;42.648;23.292;2023-02-28T09:45:37;61.25;;;35.00;;
30934;SDS011;51033;42.648;23.292;2023-02-28T09:48:14;65.97;;;36.47;;
30934;SDS011;51033;42.648;23.292;2023-02-28T09:50:45;63.80;;;36.25;;
30934;SDS011;51033;42.648;23.292;2023-02-28T09:58:55;66.60;;;36.22;;
30934;SDS011;51033;42.648;23.292;2023-02-28T10:07:22;68.32;;;33.45;;
30934;SDS011;51033;42.648;23.292;2023-02-28T10:09:52;66.95;;;34.50;;
30934;SDS011;51033;42.648;23.292;2023-02-28T10:12:22;57.25;;;33.78;;
30934;SDS011;51033;42.648;23.292;2023-02-28T10:14:51;66.85;;;36.22;;
30934;SDS011;51033;42.648;23.292;2023-02-28T10:17:21;56.08;;;34.20;;
30934;SDS011;51033;42.648;23.292;2023-02-28T10:22:22;57.47;;;33.85;;
30934;SDS011;51033;42.648;23.292;2023-02-28T10:24:53;56.67;;;32.70;;
30934;SDS011;51033;42.648;23.292;2023-02-28T10:27:26;65.78;;;33.83;;
30934;SDS011;51033;42.648;23.292;2023-02-28T10:29:56;52.35;;;30.00;;
30934;SDS011;51033;42.648;23.292;2023-02-28T10:32:28;51.35;;;25.75;;
30934;SDS011;51033;42.648;23.292;2023-02-28T10:37:34;51.42;;;25.80;;
30934;SDS011;51033;42.648;23.292;2023-02-28T10:40:03;44.22;;;24.05;;
30934;SDS011;51033;42.648;23.292;2023-02-28T10:45:31;44.65;;;22.08;;
30934;SDS011;51033;42.648;23.292;2023-02-28T10:48:04;47.90;;;22.40;;
30934;SDS011;51033;42.648;23.292;2023-02-28T10:50:42;42.97;;;18.27;;
30934;SDS011;51033;42.648;23.292;2023-02-28T10:55:41;37.38;;;18.95;;
30934;SDS011;51033;42.648;23.292;2023-02-28T10:58:20;52.10;;;17.67;;
30934;SDS011;51033;42.648;23.292;2023-02-28T11:00:50;35.55;;;17.33;;
30934;SDS011;51033;42.648;23.292;2023-02-28T11:03:23;41.75;;;17.08;;
30934;SDS011;51033;42.648;23.292;2023-02-28T11:05:49;43.50;;;17.55;;
30934;SDS011;51033;42.648;23.292;2023-02-28T11:08:15;42.70;;;18.55;;
30934;SDS011;51033;42.648;23.292;2023-02-28T11:10:48;35.47;;;18.60;;
30934;SDS011;51033;42.648;23.292;2023-02-28T11:13:21;39.80;;;19.55;;
30934;SDS011;51033;42.648;23.292;2023-02-28T11:15:51;42.00;;;21.02;;
30934;SDS011;51033;42.648;23.292;2023-02-28T11:20:54;32.63;;;17.67;;
30934;SDS011;51033;42.648;23.292;2023-02-28T11:23:23;33.53;;;17.27;;
30934;SDS011;51033;42.648;23.292;2023-02-28T11:25:54;49.80;;;19.40;;
30934;SDS011;51033;42.648;23.292;2023-02-28T11:28:31;34.20;;;14.55;;
30934;SDS011;51033;42.648;23.292;2023-02-28T11:31:06;28.45;;;12.48;;
30934;SDS011;51033;42.648;23.292;2023-02-28T11:35:58;24.20;;;13.02;;
30934;SDS011;51033;42.648;23.292;2023-02-28T11:38:28;39.72;;;17.90;;
30934;SDS011;51033;42.648;23.292;2023-02-28T11:41:11;34.33;;;17.15;;
30934;SDS011;51033;42.648;23.292;2023-02-28T11:46:41;27.42;;;16.23;;
30934;SDS011;51033;42.648;23.292;2023-02-28T12:03:26;27.33;;;13.45;;
30934;SDS011;51033;42.648;23.292;2023-02-28T12:11:42;30.67;;;14.80;;
30934;SDS011;51033;42.648;23.292;2023-02-28T12:17:00;34.22;;;15.50;;
30934;SDS011;51033;42.648;23.292;2023-02-28T12:22:29;28.05;;;13.68;;
30934;SDS011;51033;42.648;23.292;2023-02-28T12:28:22;37.88;;;14.98;;
30934;SDS011;51033;42.648;23.292;2023-02-28T12:33:40;30.02;;;13.93;;
30934;SDS011;51033;42.648;23.292;2023-02-28T12:36:10;29.27;;;14.20;;
30934;SDS011;51033;42.648;23.292;2023-02-28T12:41:18;27.95;;;14.75;;
30934;SDS011;51033;42.648;23.292;2023-02-28T12:46:45;39.90;;;14.25;;
30934;SDS011;51033;42.648;23.292;2023-02-28T12:49:31;35.42;;;15.30;;
30934;SDS011;51033;42.648;23.292;2023-02-28T12:52:17;29.10;;;15.88;;
30934;SDS011;51033;42.648;23.292;2023-02-28T12:54:56;36.90;;;17.17;;
30934;SDS011;51033;42.648;23.292;2023-02-28T12:57:39;34.17;;;18.70;;
30934;SDS011;51033;42.648;23.292;2023-02-28T13:00:14;32.40;;;14.77;;
30934;SDS011;51033;42.648;23.292;2023-02-28T13:05:49;36.35;;;16.67;;
30934;SDS011;51033;42.648;23.292;2023-02-28T13:11:29;38.88;;;16.58;;
30934;SDS011;51033;42.648;23.292;2023-02-28T13:14:04;34.70;;;15.65;;
30934;SDS011;51033;42.648;23.292;2023-02-28T13:16:51;35.90;;;16.48;;
30934;SDS011;51033;42.648;23.292;2023-02-28T13:19:29;36.72;;;16.00;;
30934;SDS011;51033;42.648;23.292;2023-02-28T13:21:56;30.17;;;15.35;;
30934;SDS011;51033;42.648;23.292;2023-02-28T13:27:21;29.33;;;14.23;;
30934;SDS011;51033;42.648;23.292;2023-02-28T13:29:49;27.63;;;15.15;;
30934;SDS011;51033;42.648;23.292;2023-02-28T13:32:28;28.13;;;13.80;;
30934;SDS011;51033;42.648;23.292;2023-02-28T13:40:50;29.30;;;14.55;;
30934;SDS011;51033;42.648;23.292;2023-02-28T13:42:52;26.50;;;11.20;;
30934;SDS011;51033;42.648;23.292;2023-02-28T13:55:27;34.83;;;14.05;;
30934;SDS011;51033;42.648;23.292;2023-02-28T14:06:52;29.63;;;14.23;;
30934;SDS011;51033;42.648;23.292;2023-02-28T14:11:57;26.80;;;12.88;;
30934;SDS011;51033;42.648;23.292;2023-02-28T14:17:12;34.97;;;13.23;;
30934;SDS011;51033;42.648;23.292;2023-02-28T14:19:40;29.63;;;13.57;;
30934;SDS011;51033;42.648;23.292;2023-02-28T14:25:15;29.65;;;13.40;;
30934;SDS011;51033;42.648;23.292;2023-02-28T14:27:47;20.77;;;11.07;;
30934;SDS011;51033;42.648;23.292;2023-02-28T14:35:54;30.25;;;12.02;;
30934;SDS011;51033;42.648;23.292;2023-02-28T14:38:24;17.65;;;10.10;;
30934;SDS011;51033;42.648;23.292;2023-02-28T14:40:55;23.20;;;10.83;;
30934;SDS011;51033;42.648;23.292;2023-02-28T14:43:27;22.23;;;11.13;;
30934;SDS011;51033;42.648;23.292;2023-02-28T14:45:59;29.58;;;12.75;;
30934;SDS011;51033;42.648;23.292;2023-02-28T14:48:27;18.80;;;10.53;;
30934;SDS011;51033;42.648;23.292;2023-02-28T14:50:54;23.98;;;11.32;;
30934;SDS011;51033;42.648;23.292;2023-02-28T14:53:23;25.02;;;12.20;;
30934;SDS011;51033;42.648;23.292;2023-02-28T14:55:52;25.92;;;11.68;;
30934;SDS011;51033;42.648;23.292;2023-02-28T14:58:28;31.08;;;12.23;;
30934;SDS011;51033;42.648;23.292;2023-02-28T15:00:56;42.95;;;13.95;;
30934;SDS011;51033;42.648;23.292;2023-02-28T15:05:57;38.25;;;15.77;;
30934;SDS011;51033;42.648;23.292;2023-02-28T15:08:24;24.00;;;13.35;;
30934;SDS011;51033;42.648;23.292;2023-02-28T15:13:21;33.92;;;14.85;;
30934;SDS011;51033;42.648;23.292;2023-02-28T15:15:52;28.95;;;14.55;;
30934;SDS011;51033;42.648;23.292;2023-02-28T15:20:50;32.45;;;15.88;;
30934;SDS011;51033;42.648;23.292;2023-02-28T15:23:16;30.48;;;16.00;;
30934;SDS011;51033;42.648;23.292;2023-02-28T15:25:43;29.58;;;14.45;;
30934;SDS011;51033;42.648;23.292;2023-02-28T15:28:11;30.05;;;14.63;;
30934;SDS011;51033;42.648;23.292;2023-02-28T15:30:49;25.95;;;13.02;;
30934;SDS011;51033;42.648;23.292;2023-02-28T15:35:44;30.33;;;12.85;;
30934;SDS011;51033;42.648;23.292;2023-02-28T15:38:18;33.28;;;13.80;;
30934;SDS011;51033;42.648;23.292;2023-02-28T15:40:51;30.40;;;15.60;;
30934;SDS011;51033;42.648;23.292;2023-02-28T15:45:52;26.63;;;15.30;;
30934;SDS011;51033;42.648;23.292;2023-02-28T15:48:33;27.98;;;16.02;;
30934;SDS011;51033;42.648;23.292;2023-02-28T15:53:37;34.83;;;16.15;;
30934;SDS011;51033;42.648;23.292;2023-02-28T15:56:20;27.77;;;14.48;;
30934;SDS011;51033;42.648;23.292;2023-02-28T15:58:49;23.00;;;14.30;;
30934;SDS011;51033;42.648;23.292;2023-02-28T16:03:42;27.65;;;13.82;;
30934;SDS011;51033;42.648;23.292;2023-02-28T16:08:41;26.77;;;14.13;;
30934;SDS011;51033;42.648;23.292;2023-02-28T16:11:08;24.50;;;14.35;;
30934;SDS011;51033;42.648;23.292;2023-02-28T16:13:35;27.88;;;13.48;;
30934;SDS011;51033;42.648;23.292;2023-02-28T16:16:00;22.40;;;13.18;;
30934;SDS011;51033;42.648;23.292;2023-02-28T16:18:26;22.00;;;11.98;;
30934;SDS011;51033;42.648;23.292;2023-02-28T16:20:52;24.20;;;13.73;;
30934;SDS011;51033;42.648;23.292;2023-02-28T16:23:17;18.70;;;11.27;;
30934;SDS011;51033;42.648;23.292;2023-02-28T16:25:43;23.05;;;12.32;;
30934;SDS011;51033;42.648;23.292;2023-02-28T16:30:53;28.10;;;12.73;;
30934;SDS011;51033;42.648;23.292;2023-02-28T16:33:18;19.67;;;13.02;;
30934;SDS011;51033;42.648;23.292;2023-02-28T16:35:44;21.65;;;12.43;;
30934;SDS011;51033;42.648;23.292;2023-02-28T16:38:09;18.80;;;11.90;;
30934;SDS011;51033;42.648;23.292;2023-02-28T16:40:35;20.05;;;11.88;;
30934;SDS011;51033;42.648;23.292;2023-02-28T16:43:04;25.13;;;14.50;;
30934;SDS011;51033;42.648;23.292;2023-02-28T16:45:32;19.90;;;13.48;;
30934;SDS011;51033;42.648;23.292;2023-02-28T16:47:58;21.58;;;12.82;;
30934;SDS011;51033;42.648;23.292;2023-02-28T16:50:28;20.42;;;12.02;;
30934;SDS011;51033;42.648;23.292;2023-02-28T16:52:57;15.43;;;10.52;;
30934;SDS011;51033;42.648;23.292;2023-02-28T16:55:23;17.60;;;11.07;;
30934;SDS011;51033;42.648;23.292;2023-02-28T16:57:51;17.73;;;9.50;;
30934;SDS011;51033;42.648;23.292;2023-02-28T17:00:20;15.73;;;9.57;;
30934;SDS011;51033;42.648;23.292;2023-02-28T17:02:47;16.52;;;10.88;;
30934;SDS011;51033;42.648;23.292;2023-02-28T17:05:13;15.15;;;9.68;;
30934;SDS011;51033;42.648;23.292;2023-02-28T17:07:40;18.77;;;10.65;;
30934;SDS011;51033;42.648;23.292;2023-02-28T17:10:11;15.02;;;9.80;;
30934;SDS011;51033;42.648;23.292;2023-02-28T17:12:39;16.83;;;10.77;;
30934;SDS011;51033;42.648;23.292;2023-02-28T17:15:05;17.30;;;10.48;;